sensor_id;sensor_type;location;lat;lon;timestamp;temperature;humidity
7030;DHT22;3556;53.500;10.176;2023-12-22T00:01:26;5.60;1.00
7030;DHT22;3556;53.500;10.176;2023-12-22T00:03:52;5.60;1.00
7030;DHT22;3556;53.500;10.176;2023-12-22T00:06:17;5.50;1.00
7030;DHT22;3556;53.500;10.176;2023-12-22T00:08:43;5.50;1.00
7030;DHT22;3556;53.500;10.176;2023-12-22T00:11:09;5.50;99.90
7030;DHT22;3556;53.500;10.176;2023-12-22T00:13:34;5.40;99.90
7030;DHT22;3556;53.500;10.176;2023-12-22T00:16:00;5.50;92.70
7030;DHT22;3556;53.500;10.176;2023-12-22T00:18:29;5.50;99.90
7030;DHT22;3556;53.500;10.176;2023-12-22T00:20:54;5.50;1.00
7030;DHT22;3556;53.500;10.176;2023-12-22T00:23:20;5.50;1.00
7030;DHT22;3556;53.500;10.176;2023-12-22T00:25:46;5.50;39.80
7030;DHT22;3556;53.500;10.176;2023-12-22T00:28:12;5.50;99.90
7030;DHT22;3556;53.500;10.176;2023-12-22T00:30:37;5.40;1.00
7030;DHT22;3556;53.500;10.176;2023-12-22T00:33:03;5.30;99.90
7030;DHT22;3556;53.500;10.176;2023-12-22T00:35:29;5.20;99.90
7030;DHT22;3556;53.500;10.176;2023-12-22T00:37:54;5.10;1.00
7030;DHT22;3556;53.500;10.176;2023-12-22T00:40:20;5.00;99.90
7030;DHT22;3556;53.500;10.176;2023-12-22T00:42:46;4.90;1.00
7030;DHT22;3556;53.500;10.176;2023-12-22T00:45:11;4.80;99.90
7030;DHT22;3556;53.500;10.176;2023-12-22T00:47:37;4.70;99.90
7030;DHT22;3556;53.500;10.176;2023-12-22T00:50:04;4.70;1.00
7030;DHT22;3556;53.500;10.176;2023-12-22T00:52:31;4.70;1.00
7030;DHT22;3556;53.500;10.176;2023-12-22T00:54:57;4.60;1.00
7030;DHT22;3556;53.500;10.176;2023-12-22T00:57:23;4.60;99.90
7030;DHT22;3556;53.500;10.176;2023-12-22T00:59:48;4.60;99.90
7030;DHT22;3556;53.500;10.176;2023-12-22T01:02:15;4.60;99.90
7030;DHT22;3556;53.500;10.176;2023-12-22T01:04:41;4.60;99.90
7030;DHT22;3556;53.500;10.176;2023-12-22T01:07:10;4.60;89.50
7030;DHT22;3556;53.500;10.176;2023-12-22T01:09:36;4.70;1.00
7030;DHT22;3556;53.500;10.176;2023-12-22T01:12:06;4.60;93.00
7030;DHT22;3556;53.500;10.176;2023-12-22T01:14:33;4.60;68.00
7030;DHT22;3556;53.500;10.176;2023-12-22T01:16:58;4.60;99.90
7030;DHT22;3556;53.500;10.176;2023-12-22T01:19:27;4.60;36.40
7030;DHT22;3556;53.500;10.176;2023-12-22T01:21:53;4.60;1.00
7030;DHT22;3556;53.500;10.176;2023-12-22T01:24:18;4.60;1.00
7030;DHT22;3556;53.500;10.176;2023-12-22T01:26:44;4.60;99.90
7030;DHT22;3556;53.500;10.176;2023-12-22T01:29:10;4.60;99.90
7030;DHT22;3556;53.500;10.176;2023-12-22T01:31:35;4.50;1.00
7030;DHT22;3556;53.500;10.176;2023-12-22T01:34:01;4.60;62.40
7030;DHT22;3556;53.500;10.176;2023-12-22T01:36:26;4.60;1.00
7030;DHT22;3556;53.500;10.176;2023-12-22T01:38:52;4.60;99.90
7030;DHT22;3556;53.500;10.176;2023-12-22T01:41:18;4.50;1.00
7030;DHT22;3556;53.500;10.176;2023-12-22T01:43:43;4.40;1.00
7030;DHT22;3556;53.500;10.176;2023-12-22T01:46:09;4.10;4.00
7030;DHT22;3556;53.500;10.176;2023-12-22T01:48:36;3.90;99.90
7030;DHT22;3556;53.500;10.176;2023-12-22T01:51:02;3.60;99.90
7030;DHT22;3556;53.500;10.176;2023-12-22T01:53:30;3.40;99.90
7030;DHT22;3556;53.500;10.176;2023-12-22T01:55:56;3.20;99.90
7030;DHT22;3556;53.500;10.176;2023-12-22T01:58:24;3.10;99.90
7030;DHT22;3556;53.500;10.176;2023-12-22T02:00:50;3.00;99.90
7030;DHT22;3556;53.500;10.176;2023-12-22T02:03:17;3.00;99.90
7030;DHT22;3556;53.500;10.176;2023-12-22T02:05:43;2.90;99.90
7030;DHT22;3556;53.500;10.176;2023-12-22T02:08:10;2.80;99.90
7030;DHT22;3556;53.500;10.176;2023-12-22T02:10:36;2.80;99.90
7030;DHT22;3556;53.500;10.176;2023-12-22T02:13:03;2.80;99.90
7030;DHT22;3556;53.500;10.176;2023-12-22T02:15:29;2.80;99.90
7030;DHT22;3556;53.500;10.176;2023-12-22T02:17:59;2.80;99.90
7030;DHT22;3556;53.500;10.176;2023-12-22T02:20:28;2.90;99.90
7030;DHT22;3556;53.500;10.176;2023-12-22T02:22:54;3.00;99.90
7030;DHT22;3556;53.500;10.176;2023-12-22T02:25:20;3.10;99.90
7030;DHT22;3556;53.500;10.176;2023-12-22T02:27:50;3.10;99.90
7030;DHT22;3556;53.500;10.176;2023-12-22T02:30:31;3.20;99.90
7030;DHT22;3556;53.500;10.176;2023-12-22T02:33:04;3.20;99.90
7030;DHT22;3556;53.500;10.176;2023-12-22T02:35:32;3.30;99.90
7030;DHT22;3556;53.500;10.176;2023-12-22T02:37:59;3.40;99.90
7030;DHT22;3556;53.500;10.176;2023-12-22T02:40:26;3.40;99.90
7030;DHT22;3556;53.500;10.176;2023-12-22T02:42:53;3.50;99.90
7030;DHT22;3556;53.500;10.176;2023-12-22T02:45:19;3.50;99.90
7030;DHT22;3556;53.500;10.176;2023-12-22T02:47:46;3.60;99.90
7030;DHT22;3556;53.500;10.176;2023-12-22T02:50:13;3.70;99.90
7030;DHT22;3556;53.500;10.176;2023-12-22T02:52:40;3.70;99.90
7030;DHT22;3556;53.500;10.176;2023-12-22T02:55:06;3.70;99.90
7030;DHT22;3556;53.500;10.176;2023-12-22T02:57:32;3.70;99.90
7030;DHT22;3556;53.500;10.176;2023-12-22T02:59:57;3.70;99.90
7030;DHT22;3556;53.500;10.176;2023-12-22T03:02:24;3.70;99.90
7030;DHT22;3556;53.500;10.176;2023-12-22T03:04:49;3.60;99.90
7030;DHT22;3556;53.500;10.176;2023-12-22T03:07:15;3.60;99.90
7030;DHT22;3556;53.500;10.176;2023-12-22T03:09:41;3.60;99.90
7030;DHT22;3556;53.500;10.176;2023-12-22T03:12:08;3.60;99.90
7030;DHT22;3556;53.500;10.176;2023-12-22T03:14:33;3.60;99.90
7030;DHT22;3556;53.500;10.176;2023-12-22T03:17:03;3.60;99.90
7030;DHT22;3556;53.500;10.176;2023-12-22T03:19:29;3.50;99.90
7030;DHT22;3556;53.500;10.176;2023-12-22T03:21:55;3.50;99.90
7030;DHT22;3556;53.500;10.176;2023-12-22T03:24:25;3.50;99.90
7030;DHT22;3556;53.500;10.176;2023-12-22T03:26:52;3.40;99.90
7030;DHT22;3556;53.500;10.176;2023-12-22T03:29:18;3.40;99.90
7030;DHT22;3556;53.500;10.176;2023-12-22T03:31:44;3.40;99.90
7030;DHT22;3556;53.500;10.176;2023-12-22T03:34:10;3.30;99.90
7030;DHT22;3556;53.500;10.176;2023-12-22T03:36:36;3.30;99.90
7030;DHT22;3556;53.500;10.176;2023-12-22T03:39:02;3.30;49.20
7030;DHT22;3556;53.500;10.176;2023-12-22T03:41:28;3.30;44.70
7030;DHT22;3556;53.500;10.176;2023-12-22T03:43:58;3.20;44.30
7030;DHT22;3556;53.500;10.176;2023-12-22T03:46:24;3.20;65.40
7030;DHT22;3556;53.500;10.176;2023-12-22T03:48:52;3.20;85.40
7030;DHT22;3556;53.500;10.176;2023-12-22T03:51:18;3.20;96.30
7030;DHT22;3556;53.500;10.176;2023-12-22T03:53:43;3.20;99.90
7030;DHT22;3556;53.500;10.176;2023-12-22T03:56:09;3.20;99.90
7030;DHT22;3556;53.500;10.176;2023-12-22T03:58:36;3.20;99.90
7030;DHT22;3556;53.500;10.176;2023-12-22T04:01:02;3.20;99.90
7030;DHT22;3556;53.500;10.176;2023-12-22T04:03:27;3.30;99.90
7030;DHT22;3556;53.500;10.176;2023-12-22T04:05:53;3.30;99.90
7030;DHT22;3556;53.500;10.176;2023-12-22T04:08:18;3.30;86.60
7030;DHT22;3556;53.500;10.176;2023-12-22T04:10:46;3.40;52.20
7030;DHT22;3556;53.500;10.176;2023-12-22T04:13:11;3.30;62.50
7030;DHT22;3556;53.500;10.176;2023-12-22T04:15:37;3.30;56.20
7030;DHT22;3556;53.500;10.176;2023-12-22T04:18:03;3.40;16.00
7030;DHT22;3556;53.500;10.176;2023-12-22T04:20:29;3.60;1.00
7030;DHT22;3556;53.500;10.176;2023-12-22T04:22:54;3.60;8.30
7030;DHT22;3556;53.500;10.176;2023-12-22T04:25:20;3.70;23.70
7030;DHT22;3556;53.500;10.176;2023-12-22T04:27:47;3.80;69.70
7030;DHT22;3556;53.500;10.176;2023-12-22T04:30:13;3.80;97.80
7030;DHT22;3556;53.500;10.176;2023-12-22T04:32:38;3.80;99.90
7030;DHT22;3556;53.500;10.176;2023-12-22T04:35:04;3.70;99.90
7030;DHT22;3556;53.500;10.176;2023-12-22T04:37:30;3.70;99.90
7030;DHT22;3556;53.500;10.176;2023-12-22T04:39:55;3.70;99.90
7030;DHT22;3556;53.500;10.176;2023-12-22T04:42:21;3.60;99.90
7030;DHT22;3556;53.500;10.176;2023-12-22T04:44:47;3.70;99.90
7030;DHT22;3556;53.500;10.176;2023-12-22T04:47:12;3.60;99.90
7030;DHT22;3556;53.500;10.176;2023-12-22T04:49:38;3.60;99.90
7030;DHT22;3556;53.500;10.176;2023-12-22T04:52:04;3.70;99.90
7030;DHT22;3556;53.500;10.176;2023-12-22T04:54:30;3.70;99.90
7030;DHT22;3556;53.500;10.176;2023-12-22T04:56:55;3.70;99.90
7030;DHT22;3556;53.500;10.176;2023-12-22T04:59:21;3.70;99.90
7030;DHT22;3556;53.500;10.176;2023-12-22T05:01:46;3.80;99.90
7030;DHT22;3556;53.500;10.176;2023-12-22T05:04:12;3.90;93.20
7030;DHT22;3556;53.500;10.176;2023-12-22T05:06:38;4.00;1.00
7030;DHT22;3556;53.500;10.176;2023-12-22T05:09:03;4.10;1.00
7030;DHT22;3556;53.500;10.176;2023-12-22T05:11:29;4.20;1.00
7030;DHT22;3556;53.500;10.176;2023-12-22T05:13:55;4.30;1.00
7030;DHT22;3556;53.500;10.176;2023-12-22T05:16:20;4.30;1.00
7030;DHT22;3556;53.500;10.176;2023-12-22T05:18:46;4.40;1.00
7030;DHT22;3556;53.500;10.176;2023-12-22T05:21:15;4.40;1.00
7030;DHT22;3556;53.500;10.176;2023-12-22T05:23:40;4.30;1.00
7030;DHT22;3556;53.500;10.176;2023-12-22T05:26:06;4.10;1.00
7030;DHT22;3556;53.500;10.176;2023-12-22T05:28:32;3.80;65.90
7030;DHT22;3556;53.500;10.176;2023-12-22T05:30:58;3.70;99.90
7030;DHT22;3556;53.500;10.176;2023-12-22T05:33:23;3.60;99.90
7030;DHT22;3556;53.500;10.176;2023-12-22T05:35:49;3.50;99.90
7030;DHT22;3556;53.500;10.176;2023-12-22T05:38:14;3.40;99.90
7030;DHT22;3556;53.500;10.176;2023-12-22T05:40:40;3.40;99.90
7030;DHT22;3556;53.500;10.176;2023-12-22T05:43:05;3.40;99.40
7030;DHT22;3556;53.500;10.176;2023-12-22T05:45:31;3.30;99.90
7030;DHT22;3556;53.500;10.176;2023-12-22T05:47:57;3.40;99.90
7030;DHT22;3556;53.500;10.176;2023-12-22T05:50:23;3.30;99.90
7030;DHT22;3556;53.500;10.176;2023-12-22T05:52:48;3.30;99.90
7030;DHT22;3556;53.500;10.176;2023-12-22T05:55:14;3.30;99.90
7030;DHT22;3556;53.500;10.176;2023-12-22T05:57:40;3.20;99.90
7030;DHT22;3556;53.500;10.176;2023-12-22T06:00:07;3.10;99.90
7030;DHT22;3556;53.500;10.176;2023-12-22T06:02:35;3.00;99.90
7030;DHT22;3556;53.500;10.176;2023-12-22T06:05:01;2.90;99.90
7030;DHT22;3556;53.500;10.176;2023-12-22T06:07:26;2.80;99.90
7030;DHT22;3556;53.500;10.176;2023-12-22T06:09:52;2.70;99.90
7030;DHT22;3556;53.500;10.176;2023-12-22T06:12:18;2.70;99.90
7030;DHT22;3556;53.500;10.176;2023-12-22T06:14:43;2.60;99.90
7030;DHT22;3556;53.500;10.176;2023-12-22T06:17:09;2.60;99.90
7030;DHT22;3556;53.500;10.176;2023-12-22T06:19:37;2.50;99.90
7030;DHT22;3556;53.500;10.176;2023-12-22T06:22:03;2.50;99.90
7030;DHT22;3556;53.500;10.176;2023-12-22T06:24:29;2.60;99.90
7030;DHT22;3556;53.500;10.176;2023-12-22T06:26:54;2.70;99.90
7030;DHT22;3556;53.500;10.176;2023-12-22T06:29:20;2.70;99.90
7030;DHT22;3556;53.500;10.176;2023-12-22T06:31:46;2.70;99.90
7030;DHT22;3556;53.500;10.176;2023-12-22T06:34:16;2.70;99.90
7030;DHT22;3556;53.500;10.176;2023-12-22T06:36:42;2.70;99.90
7030;DHT22;3556;53.500;10.176;2023-12-22T06:39:08;2.80;67.40
7030;DHT22;3556;53.500;10.176;2023-12-22T06:41:33;2.90;51.30
7030;DHT22;3556;53.500;10.176;2023-12-22T06:43:59;3.00;29.50
7030;DHT22;3556;53.500;10.176;2023-12-22T06:46:26;3.00;1.00
7030;DHT22;3556;53.500;10.176;2023-12-22T06:48:52;3.10;1.00
7030;DHT22;3556;53.500;10.176;2023-12-22T06:51:22;3.10;1.00
7030;DHT22;3556;53.500;10.176;2023-12-22T06:53:48;3.20;1.00
7030;DHT22;3556;53.500;10.176;2023-12-22T06:56:15;3.20;1.00
7030;DHT22;3556;53.500;10.176;2023-12-22T06:58:41;3.20;1.00
7030;DHT22;3556;53.500;10.176;2023-12-22T07:01:07;3.30;1.00
7030;DHT22;3556;53.500;10.176;2023-12-22T07:03:32;3.30;99.90
7030;DHT22;3556;53.500;10.176;2023-12-22T07:05:58;3.40;99.90
7030;DHT22;3556;53.500;10.176;2023-12-22T07:08:23;3.40;99.90
7030;DHT22;3556;53.500;10.176;2023-12-22T07:10:49;3.40;99.90
7030;DHT22;3556;53.500;10.176;2023-12-22T07:13:14;3.50;99.90
7030;DHT22;3556;53.500;10.176;2023-12-22T07:15:40;3.50;99.90
7030;DHT22;3556;53.500;10.176;2023-12-22T07:18:06;3.70;1.00
7030;DHT22;3556;53.500;10.176;2023-12-22T07:20:31;3.80;1.00
7030;DHT22;3556;53.500;10.176;2023-12-22T07:22:57;3.90;1.00
7030;DHT22;3556;53.500;10.176;2023-12-22T07:25:22;4.00;1.00
7030;DHT22;3556;53.500;10.176;2023-12-22T07:27:48;4.10;1.00
7030;DHT22;3556;53.500;10.176;2023-12-22T07:30:14;4.10;1.00
7030;DHT22;3556;53.500;10.176;2023-12-22T07:32:43;4.00;1.00
7030;DHT22;3556;53.500;10.176;2023-12-22T07:35:09;4.00;1.00
7030;DHT22;3556;53.500;10.176;2023-12-22T07:37:36;4.00;1.00
7030;DHT22;3556;53.500;10.176;2023-12-22T07:40:01;4.00;1.00
7030;DHT22;3556;53.500;10.176;2023-12-22T07:42:28;4.10;1.00
7030;DHT22;3556;53.500;10.176;2023-12-22T07:44:54;4.20;44.00
7030;DHT22;3556;53.500;10.176;2023-12-22T07:47:19;4.20;99.90
7030;DHT22;3556;53.500;10.176;2023-12-22T07:49:45;4.20;99.90
7030;DHT22;3556;53.500;10.176;2023-12-22T07:52:10;4.20;99.90
7030;DHT22;3556;53.500;10.176;2023-12-22T07:54:36;4.30;1.00
7030;DHT22;3556;53.500;10.176;2023-12-22T07:57:02;4.00;1.00
7030;DHT22;3556;53.500;10.176;2023-12-22T07:59:27;3.80;13.30
7030;DHT22;3556;53.500;10.176;2023-12-22T08:01:53;3.70;65.60
7030;DHT22;3556;53.500;10.176;2023-12-22T08:04:18;3.60;99.90
7030;DHT22;3556;53.500;10.176;2023-12-22T08:06:44;3.50;99.90
7030;DHT22;3556;53.500;10.176;2023-12-22T08:09:10;3.50;99.90
7030;DHT22;3556;53.500;10.176;2023-12-22T08:11:35;3.50;99.90
7030;DHT22;3556;53.500;10.176;2023-12-22T08:14:02;3.50;96.00
7030;DHT22;3556;53.500;10.176;2023-12-22T08:16:28;3.60;16.20
7030;DHT22;3556;53.500;10.176;2023-12-22T08:18:54;3.70;1.00
7030;DHT22;3556;53.500;10.176;2023-12-22T08:21:19;3.70;1.00
7030;DHT22;3556;53.500;10.176;2023-12-22T08:23:45;3.50;1.00
7030;DHT22;3556;53.500;10.176;2023-12-22T08:26:10;3.40;83.20
7030;DHT22;3556;53.500;10.176;2023-12-22T08:28:37;3.20;99.90
7030;DHT22;3556;53.500;10.176;2023-12-22T08:31:03;3.10;99.90
7030;DHT22;3556;53.500;10.176;2023-12-22T08:33:29;3.00;99.90
7030;DHT22;3556;53.500;10.176;2023-12-22T08:35:57;2.90;99.90
7030;DHT22;3556;53.500;10.176;2023-12-22T08:38:22;2.90;99.90
7030;DHT22;3556;53.500;10.176;2023-12-22T08:40:48;2.80;99.90
7030;DHT22;3556;53.500;10.176;2023-12-22T08:43:14;2.80;99.90
7030;DHT22;3556;53.500;10.176;2023-12-22T08:45:41;2.80;99.90
7030;DHT22;3556;53.500;10.176;2023-12-22T08:48:06;2.80;99.90
7030;DHT22;3556;53.500;10.176;2023-12-22T08:50:34;2.80;99.90
7030;DHT22;3556;53.500;10.176;2023-12-22T08:53:00;2.80;99.90
7030;DHT22;3556;53.500;10.176;2023-12-22T08:55:25;2.90;99.90
7030;DHT22;3556;53.500;10.176;2023-12-22T08:57:51;3.00;99.90
7030;DHT22;3556;53.500;10.176;2023-12-22T09:00:17;3.10;99.90
7030;DHT22;3556;53.500;10.176;2023-12-22T09:02:42;3.20;99.90
7030;DHT22;3556;53.500;10.176;2023-12-22T09:05:08;3.40;99.90
7030;DHT22;3556;53.500;10.176;2023-12-22T09:07:33;3.50;1.00
7030;DHT22;3556;53.500;10.176;2023-12-22T09:09:59;3.60;99.90
7030;DHT22;3556;53.500;10.176;2023-12-22T09:12:24;3.70;99.90
7030;DHT22;3556;53.500;10.176;2023-12-22T09:14:50;3.90;99.60
7030;DHT22;3556;53.500;10.176;2023-12-22T09:17:16;3.90;1.00
7030;DHT22;3556;53.500;10.176;2023-12-22T09:19:41;4.10;99.90
7030;DHT22;3556;53.500;10.176;2023-12-22T09:22:08;4.10;99.90
7030;DHT22;3556;53.500;10.176;2023-12-22T09:24:34;4.20;1.00
7030;DHT22;3556;53.500;10.176;2023-12-22T09:26:59;4.20;1.00
7030;DHT22;3556;53.500;10.176;2023-12-22T09:29:29;4.20;99.90
7030;DHT22;3556;53.500;10.176;2023-12-22T09:31:55;4.20;1.00
7030;DHT22;3556;53.500;10.176;2023-12-22T09:34:21;4.30;99.90
7030;DHT22;3556;53.500;10.176;2023-12-22T09:36:46;4.30;99.90
7030;DHT22;3556;53.500;10.176;2023-12-22T09:39:12;4.40;99.90
7030;DHT22;3556;53.500;10.176;2023-12-22T09:41:44;4.50;99.90
7030;DHT22;3556;53.500;10.176;2023-12-22T09:44:14;4.60;1.00
7030;DHT22;3556;53.500;10.176;2023-12-22T09:46:40;4.70;99.90
7030;DHT22;3556;53.500;10.176;2023-12-22T09:49:07;4.70;99.90
7030;DHT22;3556;53.500;10.176;2023-12-22T09:51:33;4.80;99.90
7030;DHT22;3556;53.500;10.176;2023-12-22T09:54:00;4.90;99.90
7030;DHT22;3556;53.500;10.176;2023-12-22T09:56:27;4.80;99.90
7030;DHT22;3556;53.500;10.176;2023-12-22T09:58:55;4.80;99.90
7030;DHT22;3556;53.500;10.176;2023-12-22T10:01:21;4.90;99.90
7030;DHT22;3556;53.500;10.176;2023-12-22T10:03:48;4.90;99.90
7030;DHT22;3556;53.500;10.176;2023-12-22T10:06:14;5.00;99.90
7030;DHT22;3556;53.500;10.176;2023-12-22T10:08:43;5.00;99.90
7030;DHT22;3556;53.500;10.176;2023-12-22T10:11:08;5.00;99.90
7030;DHT22;3556;53.500;10.176;2023-12-22T10:13:36;5.00;99.90
7030;DHT22;3556;53.500;10.176;2023-12-22T10:16:04;5.00;99.90
7030;DHT22;3556;53.500;10.176;2023-12-22T10:18:30;5.10;99.90
7030;DHT22;3556;53.500;10.176;2023-12-22T10:20:55;5.10;99.90
7030;DHT22;3556;53.500;10.176;2023-12-22T10:23:21;5.10;99.90
7030;DHT22;3556;53.500;10.176;2023-12-22T10:25:46;5.00;1.00
7030;DHT22;3556;53.500;10.176;2023-12-22T10:28:13;5.00;1.00
7030;DHT22;3556;53.500;10.176;2023-12-22T10:30:40;5.10;1.00
7030;DHT22;3556;53.500;10.176;2023-12-22T10:33:06;5.10;1.00
7030;DHT22;3556;53.500;10.176;2023-12-22T10:35:32;5.10;1.00
7030;DHT22;3556;53.500;10.176;2023-12-22T10:37:58;5.10;1.00
7030;DHT22;3556;53.500;10.176;2023-12-22T10:40:25;5.10;99.90
7030;DHT22;3556;53.500;10.176;2023-12-22T10:42:51;5.10;89.10
7030;DHT22;3556;53.500;10.176;2023-12-22T10:45:19;5.10;76.60
7030;DHT22;3556;53.500;10.176;2023-12-22T10:47:45;5.20;99.90
7030;DHT22;3556;53.500;10.176;2023-12-22T10:50:14;5.20;99.90
7030;DHT22;3556;53.500;10.176;2023-12-22T10:52:39;5.20;1.00
7030;DHT22;3556;53.500;10.176;2023-12-22T10:55:05;5.10;95.80
7030;DHT22;3556;53.500;10.176;2023-12-22T10:57:32;5.00;99.90
7030;DHT22;3556;53.500;10.176;2023-12-22T11:00:05;4.90;99.90
7030;DHT22;3556;53.500;10.176;2023-12-22T11:02:32;4.70;99.90
7030;DHT22;3556;53.500;10.176;2023-12-22T11:05:05;4.50;1.00
7030;DHT22;3556;53.500;10.176;2023-12-22T11:07:35;4.40;1.00
7030;DHT22;3556;53.500;10.176;2023-12-22T11:10:04;4.30;84.40
7030;DHT22;3556;53.500;10.176;2023-12-22T11:12:35;4.20;1.00
7030;DHT22;3556;53.500;10.176;2023-12-22T11:15:02;4.20;1.00
7030;DHT22;3556;53.500;10.176;2023-12-22T11:17:30;4.30;1.00
7030;DHT22;3556;53.500;10.176;2023-12-22T11:19:56;4.30;1.00
7030;DHT22;3556;53.500;10.176;2023-12-22T11:22:22;4.20;99.90
7030;DHT22;3556;53.500;10.176;2023-12-22T11:24:49;4.20;1.00
7030;DHT22;3556;53.500;10.176;2023-12-22T11:27:19;4.10;99.90
7030;DHT22;3556;53.500;10.176;2023-12-22T11:29:49;4.10;1.00
7030;DHT22;3556;53.500;10.176;2023-12-22T11:32:16;4.10;1.00
7030;DHT22;3556;53.500;10.176;2023-12-22T11:34:43;4.10;1.00
7030;DHT22;3556;53.500;10.176;2023-12-22T11:37:11;4.10;1.00
7030;DHT22;3556;53.500;10.176;2023-12-22T11:39:37;4.10;1.00
7030;DHT22;3556;53.500;10.176;2023-12-22T11:42:05;4.10;1.00
7030;DHT22;3556;53.500;10.176;2023-12-22T11:44:31;4.10;1.10
7030;DHT22;3556;53.500;10.176;2023-12-22T11:47:05;4.10;41.80
7030;DHT22;3556;53.500;10.176;2023-12-22T11:49:35;4.00;1.00
7030;DHT22;3556;53.500;10.176;2023-12-22T11:52:30;3.80;1.00
7030;DHT22;3556;53.500;10.176;2023-12-22T11:54:57;3.80;52.70
7030;DHT22;3556;53.500;10.176;2023-12-22T11:57:33;3.70;27.40
7030;DHT22;3556;53.500;10.176;2023-12-22T12:00:37;3.70;33.20
7030;DHT22;3556;53.500;10.176;2023-12-22T12:03:06;3.70;1.00
7030;DHT22;3556;53.500;10.176;2023-12-22T12:05:31;3.80;1.00
7030;DHT22;3556;53.500;10.176;2023-12-22T12:08:06;3.80;1.00
7030;DHT22;3556;53.500;10.176;2023-12-22T12:13:05;3.90;1.00
7030;DHT22;3556;53.500;10.176;2023-12-22T12:15:33;3.90;1.00
7030;DHT22;3556;53.500;10.176;2023-12-22T12:17:59;3.90;1.00
7030;DHT22;3556;53.500;10.176;2023-12-22T12:20:26;3.90;1.00
7030;DHT22;3556;53.500;10.176;2023-12-22T12:22:53;4.00;1.00
7030;DHT22;3556;53.500;10.176;2023-12-22T12:25:32;4.10;1.00
7030;DHT22;3556;53.500;10.176;2023-12-22T12:28:05;4.10;1.00
7030;DHT22;3556;53.500;10.176;2023-12-22T12:30:32;4.10;1.00
7030;DHT22;3556;53.500;10.176;2023-12-22T12:32:59;4.10;1.00
7030;DHT22;3556;53.500;10.176;2023-12-22T12:35:31;4.10;1.00
7030;DHT22;3556;53.500;10.176;2023-12-22T12:37:58;4.10;1.00
7030;DHT22;3556;53.500;10.176;2023-12-22T12:40:24;4.20;1.00
7030;DHT22;3556;53.500;10.176;2023-12-22T12:42:50;4.30;1.00
7030;DHT22;3556;53.500;10.176;2023-12-22T12:45:25;4.30;1.00
7030;DHT22;3556;53.500;10.176;2023-12-22T12:48:01;4.30;1.00
7030;DHT22;3556;53.500;10.176;2023-12-22T12:50:28;4.30;1.00
7030;DHT22;3556;53.500;10.176;2023-12-22T12:52:54;4.30;1.00
7030;DHT22;3556;53.500;10.176;2023-12-22T12:55:24;4.30;1.00
7030;DHT22;3556;53.500;10.176;2023-12-22T12:57:54;4.30;1.00
7030;DHT22;3556;53.500;10.176;2023-12-22T13:00:27;4.30;1.00
7030;DHT22;3556;53.500;10.176;2023-12-22T13:03:03;4.40;1.00
7030;DHT22;3556;53.500;10.176;2023-12-22T13:05:30;4.40;1.00
7030;DHT22;3556;53.500;10.176;2023-12-22T13:08:11;4.40;1.00
7030;DHT22;3556;53.500;10.176;2023-12-22T13:10:38;4.40;1.00
7030;DHT22;3556;53.500;10.176;2023-12-22T13:13:04;4.50;1.00
7030;DHT22;3556;53.500;10.176;2023-12-22T13:15:30;4.50;1.00
7030;DHT22;3556;53.500;10.176;2023-12-22T13:17:55;4.50;6.20
7030;DHT22;3556;53.500;10.176;2023-12-22T13:20:22;4.40;89.80
7030;DHT22;3556;53.500;10.176;2023-12-22T13:22:48;4.40;99.90
7030;DHT22;3556;53.500;10.176;2023-12-22T13:25:14;4.40;99.90
7030;DHT22;3556;53.500;10.176;2023-12-22T13:27:50;4.30;99.90
7030;DHT22;3556;53.500;10.176;2023-12-22T13:30:38;4.30;99.90
7030;DHT22;3556;53.500;10.176;2023-12-22T13:33:06;4.30;99.90
7030;DHT22;3556;53.500;10.176;2023-12-22T13:35:33;4.30;99.90
7030;DHT22;3556;53.500;10.176;2023-12-22T13:38:04;4.40;99.90
7030;DHT22;3556;53.500;10.176;2023-12-22T13:40:30;4.40;99.90
7030;DHT22;3556;53.500;10.176;2023-12-22T13:42:56;4.40;99.90
7030;DHT22;3556;53.500;10.176;2023-12-22T13:45:29;4.50;99.90
7030;DHT22;3556;53.500;10.176;2023-12-22T13:47:55;4.50;99.90
7030;DHT22;3556;53.500;10.176;2023-12-22T13:50:21;4.60;99.90
7030;DHT22;3556;53.500;10.176;2023-12-22T13:52:49;4.60;99.90
7030;DHT22;3556;53.500;10.176;2023-12-22T13:55:17;4.60;31.80
7030;DHT22;3556;53.500;10.176;2023-12-22T13:57:43;4.70;1.00
7030;DHT22;3556;53.500;10.176;2023-12-22T14:02:47;4.80;1.00
7030;DHT22;3556;53.500;10.176;2023-12-22T14:05:18;4.90;1.00
7030;DHT22;3556;53.500;10.176;2023-12-22T14:07:44;4.90;1.00
7030;DHT22;3556;53.500;10.176;2023-12-22T14:10:11;4.90;1.00
7030;DHT22;3556;53.500;10.176;2023-12-22T14:12:37;4.90;1.00
7030;DHT22;3556;53.500;10.176;2023-12-22T14:15:12;4.80;1.00
7030;DHT22;3556;53.500;10.176;2023-12-22T14:17:39;4.80;1.00
7030;DHT22;3556;53.500;10.176;2023-12-22T14:20:07;4.80;1.00
7030;DHT22;3556;53.500;10.176;2023-12-22T14:22:35;4.80;1.00
7030;DHT22;3556;53.500;10.176;2023-12-22T14:25:01;4.70;1.00
7030;DHT22;3556;53.500;10.176;2023-12-22T14:27:27;4.80;1.00
7030;DHT22;3556;53.500;10.176;2023-12-22T14:29:53;4.80;1.00
7030;DHT22;3556;53.500;10.176;2023-12-22T14:32:18;4.80;1.00
7030;DHT22;3556;53.500;10.176;2023-12-22T14:34:45;4.90;1.00
7030;DHT22;3556;53.500;10.176;2023-12-22T14:37:11;4.80;1.00
7030;DHT22;3556;53.500;10.176;2023-12-22T14:39:36;4.90;1.00
7030;DHT22;3556;53.500;10.176;2023-12-22T14:42:02;4.90;99.90
7030;DHT22;3556;53.500;10.176;2023-12-22T14:44:29;4.90;99.90
7030;DHT22;3556;53.500;10.176;2023-12-22T14:46:54;4.90;99.90
7030;DHT22;3556;53.500;10.176;2023-12-22T14:49:20;4.90;99.90
7030;DHT22;3556;53.500;10.176;2023-12-22T14:51:47;4.90;99.90
7030;DHT22;3556;53.500;10.176;2023-12-22T14:54:17;4.90;99.90
7030;DHT22;3556;53.500;10.176;2023-12-22T14:56:43;4.90;1.00
7030;DHT22;3556;53.500;10.176;2023-12-22T14:59:12;4.90;1.00
7030;DHT22;3556;53.500;10.176;2023-12-22T15:01:40;4.90;1.00
7030;DHT22;3556;53.500;10.176;2023-12-22T15:04:06;4.90;1.00
7030;DHT22;3556;53.500;10.176;2023-12-22T15:06:32;4.80;1.00
7030;DHT22;3556;53.500;10.176;2023-12-22T15:08:58;4.80;1.00
7030;DHT22;3556;53.500;10.176;2023-12-22T15:11:25;4.70;1.00
7030;DHT22;3556;53.500;10.176;2023-12-22T15:13:50;4.70;1.00
7030;DHT22;3556;53.500;10.176;2023-12-22T15:16:16;4.70;1.00
7030;DHT22;3556;53.500;10.176;2023-12-22T15:18:41;4.70;1.00
7030;DHT22;3556;53.500;10.176;2023-12-22T15:21:07;4.60;11.20
7030;DHT22;3556;53.500;10.176;2023-12-22T15:23:33;4.70;99.90
7030;DHT22;3556;53.500;10.176;2023-12-22T15:25:59;4.60;99.90
7030;DHT22;3556;53.500;10.176;2023-12-22T15:28:25;4.60;99.90
7030;DHT22;3556;53.500;10.176;2023-12-22T15:30:51;4.60;99.90
7030;DHT22;3556;53.500;10.176;2023-12-22T15:33:17;4.60;99.90
7030;DHT22;3556;53.500;10.176;2023-12-22T15:35:43;4.60;99.90
7030;DHT22;3556;53.500;10.176;2023-12-22T15:38:09;4.60;99.90
7030;DHT22;3556;53.500;10.176;2023-12-22T15:40:36;4.50;99.90
7030;DHT22;3556;53.500;10.176;2023-12-22T15:43:01;4.50;99.90
7030;DHT22;3556;53.500;10.176;2023-12-22T15:45:27;4.50;1.00
7030;DHT22;3556;53.500;10.176;2023-12-22T15:47:53;4.50;1.00
7030;DHT22;3556;53.500;10.176;2023-12-22T15:50:18;4.50;1.00
7030;DHT22;3556;53.500;10.176;2023-12-22T15:52:44;4.40;1.00
7030;DHT22;3556;53.500;10.176;2023-12-22T15:55:10;4.40;1.00
7030;DHT22;3556;53.500;10.176;2023-12-22T15:57:36;4.50;1.00
7030;DHT22;3556;53.500;10.176;2023-12-22T16:00:05;4.50;1.00
7030;DHT22;3556;53.500;10.176;2023-12-22T16:02:31;4.40;1.00
7030;DHT22;3556;53.500;10.176;2023-12-22T16:04:56;4.40;1.00
7030;DHT22;3556;53.500;10.176;2023-12-22T16:07:22;4.40;1.00
7030;DHT22;3556;53.500;10.176;2023-12-22T16:09:49;4.30;1.00